sensor_id;sensor_type;location;lat;lon;timestamp;temperature;humidity
68450;SHT30;55434;39.570;2.652;2023-02-10T00:01:58;8.56;64.45
68450;SHT30;55434;39.570;2.652;2023-02-10T00:04:24;8.51;64.68
68450;SHT30;55434;39.570;2.652;2023-02-10T00:06:49;8.47;65.39
68450;SHT30;55434;39.570;2.652;2023-02-10T00:09:15;8.49;65.94
68450;SHT30;55434;39.570;2.652;2023-02-10T00:11:41;8.49;66.15
68450;SHT30;55434;39.570;2.652;2023-02-10T00:14:22;8.43;65.68
68450;SHT30;55434;39.570;2.652;2023-02-10T00:16:52;8.44;65.89
68450;SHT30;55434;39.570;2.652;2023-02-10T00:19:21;8.39;65.59
68450;SHT30;55434;39.570;2.652;2023-02-10T00:21:47;8.40;65.60
68450;SHT30;55434;39.570;2.652;2023-02-10T00:24:13;8.44;66.05
68450;SHT30;55434;39.570;2.652;2023-02-10T00:26:39;8.43;66.47
68450;SHT30;55434;39.570;2.652;2023-02-10T00:29:04;8.43;65.76
68450;SHT30;55434;39.570;2.652;2023-02-10T00:31:32;8.44;65.28
68450;SHT30;55434;39.570;2.652;2023-02-10T00:33:58;8.41;65.84
68450;SHT30;55434;39.570;2.652;2023-02-10T00:36:23;8.37;64.72
68450;SHT30;55434;39.570;2.652;2023-02-10T00:38:50;8.44;65.69
68450;SHT30;55434;39.570;2.652;2023-02-10T00:41:18;8.40;66.09
68450;SHT30;55434;39.570;2.652;2023-02-10T00:43:45;8.39;65.93
68450;SHT30;55434;39.570;2.652;2023-02-10T00:46:16;8.27;67.02
68450;SHT30;55434;39.570;2.652;2023-02-10T00:48:42;8.22;67.38
68450;SHT30;55434;39.570;2.652;2023-02-10T00:51:08;8.23;67.93
68450;SHT30;55434;39.570;2.652;2023-02-10T00:53:34;8.19;68.48
68450;SHT30;55434;39.570;2.652;2023-02-10T00:56:00;8.20;68.39
68450;SHT30;55434;39.570;2.652;2023-02-10T00:58:26;8.05;68.39
68450;SHT30;55434;39.570;2.652;2023-02-10T01:00:53;7.96;67.90
68450;SHT30;55434;39.570;2.652;2023-02-10T01:03:19;7.92;68.43
68450;SHT30;55434;39.570;2.652;2023-02-10T01:05:48;7.92;67.21
68450;SHT30;55434;39.570;2.652;2023-02-10T01:08:14;7.96;66.99
68450;SHT30;55434;39.570;2.652;2023-02-10T01:10:40;8.05;67.17
68450;SHT30;55434;39.570;2.652;2023-02-10T01:13:08;8.05;66.49
68450;SHT30;55434;39.570;2.652;2023-02-10T01:15:34;8.09;67.45
68450;SHT30;55434;39.570;2.652;2023-02-10T01:18:00;8.00;67.57
68450;SHT30;55434;39.570;2.652;2023-02-10T01:20:26;8.06;68.03
68450;SHT30;55434;39.570;2.652;2023-02-10T01:22:52;8.05;67.54
68450;SHT30;55434;39.570;2.652;2023-02-10T01:25:18;8.05;67.23
68450;SHT30;55434;39.570;2.652;2023-02-10T01:27:44;8.12;67.17
68450;SHT30;55434;39.570;2.652;2023-02-10T01:30:10;8.20;66.97
68450;SHT30;55434;39.570;2.652;2023-02-10T01:32:36;8.20;67.05
68450;SHT30;55434;39.570;2.652;2023-02-10T01:35:03;8.26;67.33
68450;SHT30;55434;39.570;2.652;2023-02-10T01:37:29;8.23;67.82
68450;SHT30;55434;39.570;2.652;2023-02-10T01:39:54;8.19;68.20
68450;SHT30;55434;39.570;2.652;2023-02-10T01:42:20;8.22;67.91
68450;SHT30;55434;39.570;2.652;2023-02-10T01:47:11;8.30;67.52
68450;SHT30;55434;39.570;2.652;2023-02-10T01:49:43;8.37;65.24
68450;SHT30;55434;39.570;2.652;2023-02-10T01:52:20;8.46;65.79
68450;SHT30;55434;39.570;2.652;2023-02-10T01:54:51;8.43;63.89
68450;SHT30;55434;39.570;2.652;2023-02-10T01:57:18;8.46;63.78
68450;SHT30;55434;39.570;2.652;2023-02-10T01:59:44;8.51;63.99
68450;SHT30;55434;39.570;2.652;2023-02-10T02:02:11;8.50;64.46
68450;SHT30;55434;39.570;2.652;2023-02-10T02:04:42;8.56;64.28
68450;SHT30;55434;39.570;2.652;2023-02-10T02:07:10;8.65;65.42
68450;SHT30;55434;39.570;2.652;2023-02-10T02:09:36;8.65;63.78
68450;SHT30;55434;39.570;2.652;2023-02-10T02:15:27;8.70;64.01
68450;SHT30;55434;39.570;2.652;2023-02-10T02:29:05;8.78;65.39
68450;SHT30;55434;39.570;2.652;2023-02-10T02:32:04;8.77;65.60
68450;SHT30;55434;39.570;2.652;2023-02-10T02:34:42;8.74;65.90
68450;SHT30;55434;39.570;2.652;2023-02-10T02:39:42;8.84;66.61
68450;SHT30;55434;39.570;2.652;2023-02-10T02:42:21;8.78;61.99
68450;SHT30;55434;39.570;2.652;2023-02-10T02:50:34;9.11;64.81
68450;SHT30;55434;39.570;2.652;2023-02-10T02:53:05;9.16;65.45
68450;SHT30;55434;39.570;2.652;2023-02-10T02:55:49;9.12;64.91
68450;SHT30;55434;39.570;2.652;2023-02-10T03:01:22;8.89;63.63
68450;SHT30;55434;39.570;2.652;2023-02-10T03:03:52;8.81;63.41
68450;SHT30;55434;39.570;2.652;2023-02-10T03:06:18;8.84;63.98
68450;SHT30;55434;39.570;2.652;2023-02-10T03:08:44;8.82;64.16
68450;SHT30;55434;39.570;2.652;2023-02-10T03:11:10;8.89;65.60
68450;SHT30;55434;39.570;2.652;2023-02-10T03:13:35;8.98;66.20
68450;SHT30;55434;39.570;2.652;2023-02-10T03:16:01;8.97;66.08
68450;SHT30;55434;39.570;2.652;2023-02-10T03:18:28;8.88;64.32
68450;SHT30;55434;39.570;2.652;2023-02-10T03:20:53;8.85;64.11
68450;SHT30;55434;39.570;2.652;2023-02-10T03:23:19;8.82;64.10
68450;SHT30;55434;39.570;2.652;2023-02-10T03:25:45;8.81;64.47
68450;SHT30;55434;39.570;2.652;2023-02-10T03:28:10;8.87;64.75
68450;SHT30;55434;39.570;2.652;2023-02-10T03:30:37;9.00;66.40
68450;SHT30;55434;39.570;2.652;2023-02-10T03:33:03;9.01;66.61
68450;SHT30;55434;39.570;2.652;2023-02-10T03:35:29;9.02;66.69
68450;SHT30;55434;39.570;2.652;2023-02-10T03:37:55;9.04;66.52
68450;SHT30;55434;39.570;2.652;2023-02-10T03:40:21;9.02;67.27
68450;SHT30;55434;39.570;2.652;2023-02-10T03:42:46;8.89;65.41
68450;SHT30;55434;39.570;2.652;2023-02-10T03:45:12;8.81;65.87
68450;SHT30;55434;39.570;2.652;2023-02-10T03:47:40;8.74;66.04
68450;SHT30;55434;39.570;2.652;2023-02-10T03:50:05;8.71;66.66
68450;SHT30;55434;39.570;2.652;2023-02-10T03:52:31;8.65;67.11
68450;SHT30;55434;39.570;2.652;2023-02-10T03:54:57;8.63;66.73
68450;SHT30;55434;39.570;2.652;2023-02-10T03:57:22;8.72;67.05
68450;SHT30;55434;39.570;2.652;2023-02-10T03:59:48;9.00;67.66
68450;SHT30;55434;39.570;2.652;2023-02-10T04:02:13;9.08;68.46
68450;SHT30;55434;39.570;2.652;2023-02-10T04:04:39;9.15;69.42
68450;SHT30;55434;39.570;2.652;2023-02-10T04:07:05;9.07;69.07
68450;SHT30;55434;39.570;2.652;2023-02-10T04:09:30;9.01;67.26
68450;SHT30;55434;39.570;2.652;2023-02-10T04:11:56;9.04;67.40
68450;SHT30;55434;39.570;2.652;2023-02-10T04:14:22;9.04;65.81
68450;SHT30;55434;39.570;2.652;2023-02-10T04:16:47;9.00;67.88
68450;SHT30;55434;39.570;2.652;2023-02-10T04:19:13;8.75;70.37
68450;SHT30;55434;39.570;2.652;2023-02-10T04:21:38;8.50;72.63
68450;SHT30;55434;39.570;2.652;2023-02-10T04:24:04;8.37;72.80
68450;SHT30;55434;39.570;2.652;2023-02-10T04:26:31;8.26;73.13
68450;SHT30;55434;39.570;2.652;2023-02-10T04:28:56;8.16;74.05
68450;SHT30;55434;39.570;2.652;2023-02-10T04:31:22;8.07;75.43
68450;SHT30;55434;39.570;2.652;2023-02-10T04:33:47;8.00;76.57
68450;SHT30;55434;39.570;2.652;2023-02-10T04:36:13;7.98;76.90
68450;SHT30;55434;39.570;2.652;2023-02-10T04:38:39;8.00;76.89
68450;SHT30;55434;39.570;2.652;2023-02-10T04:41:04;8.03;76.03
68450;SHT30;55434;39.570;2.652;2023-02-10T04:43:31;7.98;75.43
68450;SHT30;55434;39.570;2.652;2023-02-10T04:45:57;7.98;76.48
68450;SHT30;55434;39.570;2.652;2023-02-10T04:48:23;7.99;75.44
68450;SHT30;55434;39.570;2.652;2023-02-10T04:50:48;8.00;75.90
68450;SHT30;55434;39.570;2.652;2023-02-10T04:53:14;8.03;76.55
68450;SHT30;55434;39.570;2.652;2023-02-10T04:55:40;8.05;76.95
68450;SHT30;55434;39.570;2.652;2023-02-10T04:58:06;8.03;77.40
68450;SHT30;55434;39.570;2.652;2023-02-10T05:00:32;8.07;77.37
68450;SHT30;55434;39.570;2.652;2023-02-10T05:02:58;8.12;77.45
68450;SHT30;55434;39.570;2.652;2023-02-10T05:05:24;8.09;76.97
68450;SHT30;55434;39.570;2.652;2023-02-10T05:07:51;8.19;77.91
68450;SHT30;55434;39.570;2.652;2023-02-10T05:10:17;8.23;77.71
68450;SHT30;55434;39.570;2.652;2023-02-10T05:12:43;8.12;77.00
68450;SHT30;55434;39.570;2.652;2023-02-10T05:15:09;8.03;77.68
68450;SHT30;55434;39.570;2.652;2023-02-10T05:17:35;8.02;78.32
68450;SHT30;55434;39.570;2.652;2023-02-10T05:20:01;7.98;79.07
68450;SHT30;55434;39.570;2.652;2023-02-10T05:22:28;7.93;79.77
68450;SHT30;55434;39.570;2.652;2023-02-10T05:24:57;7.76;80.57
68450;SHT30;55434;39.570;2.652;2023-02-10T05:27:24;7.76;80.79
68450;SHT30;55434;39.570;2.652;2023-02-10T05:29:50;7.79;80.58
68450;SHT30;55434;39.570;2.652;2023-02-10T05:32:16;7.81;80.59
68450;SHT30;55434;39.570;2.652;2023-02-10T05:34:41;7.85;80.22
68450;SHT30;55434;39.570;2.652;2023-02-10T05:37:07;7.86;80.22
68450;SHT30;55434;39.570;2.652;2023-02-10T05:39:32;7.89;80.14
68450;SHT30;55434;39.570;2.652;2023-02-10T05:41:58;7.95;79.80
68450;SHT30;55434;39.570;2.652;2023-02-10T05:44:25;7.96;79.20
68450;SHT30;55434;39.570;2.652;2023-02-10T05:46:52;7.96;79.01
68450;SHT30;55434;39.570;2.652;2023-02-10T05:49:18;8.02;78.95
68450;SHT30;55434;39.570;2.652;2023-02-10T05:51:44;8.05;79.55
68450;SHT30;55434;39.570;2.652;2023-02-10T05:54:11;8.06;78.84
68450;SHT30;55434;39.570;2.652;2023-02-10T05:56:37;8.10;78.81
68450;SHT30;55434;39.570;2.652;2023-02-10T05:59:03;8.13;79.38
68450;SHT30;55434;39.570;2.652;2023-02-10T06:01:29;8.09;78.62
68450;SHT30;55434;39.570;2.652;2023-02-10T06:03:54;8.07;78.46
68450;SHT30;55434;39.570;2.652;2023-02-10T06:06:20;8.10;78.47
68450;SHT30;55434;39.570;2.652;2023-02-10T06:08:46;8.09;78.53
68450;SHT30;55434;39.570;2.652;2023-02-10T06:11:12;8.17;78.77
68450;SHT30;55434;39.570;2.652;2023-02-10T06:13:37;8.14;78.46
68450;SHT30;55434;39.570;2.652;2023-02-10T06:16:03;8.12;78.75
68450;SHT30;55434;39.570;2.652;2023-02-10T06:18:30;8.12;78.64
68450;SHT30;55434;39.570;2.652;2023-02-10T06:20:56;8.14;78.70
68450;SHT30;55434;39.570;2.652;2023-02-10T06:23:22;8.16;78.95
68450;SHT30;55434;39.570;2.652;2023-02-10T06:25:48;8.14;79.12
68450;SHT30;55434;39.570;2.652;2023-02-10T06:28:16;8.03;79.56
68450;SHT30;55434;39.570;2.652;2023-02-10T06:30:41;8.03;80.25
68450;SHT30;55434;39.570;2.652;2023-02-10T06:33:07;7.96;80.57
68450;SHT30;55434;39.570;2.652;2023-02-10T06:35:33;7.95;80.85
68450;SHT30;55434;39.570;2.652;2023-02-10T06:37:58;7.98;80.42
68450;SHT30;55434;39.570;2.652;2023-02-10T06:40:24;8.03;80.00
68450;SHT30;55434;39.570;2.652;2023-02-10T06:42:50;8.09;79.69
68450;SHT30;55434;39.570;2.652;2023-02-10T06:45:15;8.10;79.81
68450;SHT30;55434;39.570;2.652;2023-02-10T06:47:41;8.17;80.02
68450;SHT30;55434;39.570;2.652;2023-02-10T06:50:07;8.22;79.16
68450;SHT30;55434;39.570;2.652;2023-02-10T06:52:34;8.30;78.74
68450;SHT30;55434;39.570;2.652;2023-02-10T06:55:04;8.32;77.97
68450;SHT30;55434;39.570;2.652;2023-02-10T06:57:30;8.34;77.64
68450;SHT30;55434;39.570;2.652;2023-02-10T06:59:57;8.39;77.60
68450;SHT30;55434;39.570;2.652;2023-02-10T07:02:24;8.47;77.50
68450;SHT30;55434;39.570;2.652;2023-02-10T07:04:50;8.56;77.55
68450;SHT30;55434;39.570;2.652;2023-02-10T07:07:16;8.56;76.80
68450;SHT30;55434;39.570;2.652;2023-02-10T07:09:45;8.61;77.24
68450;SHT30;55434;39.570;2.652;2023-02-10T07:12:11;8.63;77.20
68450;SHT30;55434;39.570;2.652;2023-02-10T07:14:39;8.72;77.69
68450;SHT30;55434;39.570;2.652;2023-02-10T07:17:05;8.72;77.87
68450;SHT30;55434;39.570;2.652;2023-02-10T07:19:30;8.78;78.04
68450;SHT30;55434;39.570;2.652;2023-02-10T07:21:57;8.87;78.39
68450;SHT30;55434;39.570;2.652;2023-02-10T07:24:22;8.91;78.78
68450;SHT30;55434;39.570;2.652;2023-02-10T07:26:48;8.92;79.64
68450;SHT30;55434;39.570;2.652;2023-02-10T07:29:13;8.91;79.77
68450;SHT30;55434;39.570;2.652;2023-02-10T07:31:39;8.98;79.99
68450;SHT30;55434;39.570;2.652;2023-02-10T07:34:05;9.01;79.69
68450;SHT30;55434;39.570;2.652;2023-02-10T07:36:30;9.02;80.20
68450;SHT30;55434;39.570;2.652;2023-02-10T07:38:56;8.78;80.05
68450;SHT30;55434;39.570;2.652;2023-02-10T07:41:21;8.60;80.70
68450;SHT30;55434;39.570;2.652;2023-02-10T07:43:47;8.70;81.50
68450;SHT30;55434;39.570;2.652;2023-02-10T07:46:12;8.84;81.06
68450;SHT30;55434;39.570;2.652;2023-02-10T07:48:40;8.68;80.74
68450;SHT30;55434;39.570;2.652;2023-02-10T07:51:06;8.53;81.16
68450;SHT30;55434;39.570;2.652;2023-02-10T07:53:31;8.54;80.66
68450;SHT30;55434;39.570;2.652;2023-02-10T07:55:58;8.68;80.58
68450;SHT30;55434;39.570;2.652;2023-02-10T07:58:24;8.91;80.71
68450;SHT30;55434;39.570;2.652;2023-02-10T08:00:50;9.09;79.98
68450;SHT30;55434;39.570;2.652;2023-02-10T08:03:15;9.01;77.76
68450;SHT30;55434;39.570;2.652;2023-02-10T08:05:41;9.02;77.40
68450;SHT30;55434;39.570;2.652;2023-02-10T08:08:10;8.98;77.25
68450;SHT30;55434;39.570;2.652;2023-02-10T08:10:39;9.08;78.32
68450;SHT30;55434;39.570;2.652;2023-02-10T08:13:05;8.92;79.87
68450;SHT30;55434;39.570;2.652;2023-02-10T08:15:30;8.87;80.63
68450;SHT30;55434;39.570;2.652;2023-02-10T08:17:58;8.88;80.88
68450;SHT30;55434;39.570;2.652;2023-02-10T08:20:24;8.77;80.75
68450;SHT30;55434;39.570;2.652;2023-02-10T08:22:56;8.78;79.18
68450;SHT30;55434;39.570;2.652;2023-02-10T08:25:21;8.85;80.13
68450;SHT30;55434;39.570;2.652;2023-02-10T08:27:47;8.93;79.90
68450;SHT30;55434;39.570;2.652;2023-02-10T08:30:13;9.04;79.49
68450;SHT30;55434;39.570;2.652;2023-02-10T08:32:38;9.16;79.41
68450;SHT30;55434;39.570;2.652;2023-02-10T08:35:04;9.31;78.48
68450;SHT30;55434;39.570;2.652;2023-02-10T08:37:30;9.46;75.79
68450;SHT30;55434;39.570;2.652;2023-02-10T08:39:56;9.77;76.91
68450;SHT30;55434;39.570;2.652;2023-02-10T08:42:22;9.73;74.79
68450;SHT30;55434;39.570;2.652;2023-02-10T08:44:47;9.79;74.74
68450;SHT30;55434;39.570;2.652;2023-02-10T08:47:13;10.01;74.85
68450;SHT30;55434;39.570;2.652;2023-02-10T08:49:40;10.05;73.36
68450;SHT30;55434;39.570;2.652;2023-02-10T08:52:06;10.20;73.51
68450;SHT30;55434;39.570;2.652;2023-02-10T08:54:32;10.22;73.28
68450;SHT30;55434;39.570;2.652;2023-02-10T08:56:57;10.20;72.90
68450;SHT30;55434;39.570;2.652;2023-02-10T08:59:23;10.40;73.49
68450;SHT30;55434;39.570;2.652;2023-02-10T09:01:49;10.37;72.94
68450;SHT30;55434;39.570;2.652;2023-02-10T09:04:15;10.44;74.16
68450;SHT30;55434;39.570;2.652;2023-02-10T09:06:41;10.40;73.23
68450;SHT30;55434;39.570;2.652;2023-02-10T09:09:14;10.30;73.22
68450;SHT30;55434;39.570;2.652;2023-02-10T09:11:40;10.08;73.44
68450;SHT30;55434;39.570;2.652;2023-02-10T09:14:06;9.82;73.46
68450;SHT30;55434;39.570;2.652;2023-02-10T09:16:33;9.76;74.39
68450;SHT30;55434;39.570;2.652;2023-02-10T09:18:59;9.72;74.84
68450;SHT30;55434;39.570;2.652;2023-02-10T09:21:24;9.69;75.03
68450;SHT30;55434;39.570;2.652;2023-02-10T09:23:51;9.50;74.94
68450;SHT30;55434;39.570;2.652;2023-02-10T09:26:17;9.74;75.16
68450;SHT30;55434;39.570;2.652;2023-02-10T09:28:42;9.52;74.90
68450;SHT30;55434;39.570;2.652;2023-02-10T09:31:09;9.56;75.29
68450;SHT30;55434;39.570;2.652;2023-02-10T09:33:36;9.70;75.41
68450;SHT30;55434;39.570;2.652;2023-02-10T09:36:06;9.74;75.25
68450;SHT30;55434;39.570;2.652;2023-02-10T09:38:33;9.69;73.91
68450;SHT30;55434;39.570;2.652;2023-02-10T09:55:48;10.10;75.04
68450;SHT30;55434;39.570;2.652;2023-02-10T10:03:45;10.35;71.53
68450;SHT30;55434;39.570;2.652;2023-02-10T10:06:32;10.44;71.19
68450;SHT30;55434;39.570;2.652;2023-02-10T10:09:11;10.61;71.04
68450;SHT30;55434;39.570;2.652;2023-02-10T10:11:46;10.78;71.11
68450;SHT30;55434;39.570;2.652;2023-02-10T10:14:38;11.03;70.00
68450;SHT30;55434;39.570;2.652;2023-02-10T10:22:56;11.16;67.21
68450;SHT30;55434;39.570;2.652;2023-02-10T10:26:09;11.38;66.86
68450;SHT30;55434;39.570;2.652;2023-02-10T10:31:13;11.58;65.82
68450;SHT30;55434;39.570;2.652;2023-02-10T10:36:18;14.89;57.08
68450;SHT30;55434;39.570;2.652;2023-02-10T10:38:49;15.89;53.63
68450;SHT30;55434;39.570;2.652;2023-02-10T10:41:16;15.94;52.61
68450;SHT30;55434;39.570;2.652;2023-02-10T10:43:47;16.32;52.16
68450;SHT30;55434;39.570;2.652;2023-02-10T10:46:31;14.88;54.97
68450;SHT30;55434;39.570;2.652;2023-02-10T10:48:58;14.12;57.07
68450;SHT30;55434;39.570;2.652;2023-02-10T10:51:25;13.37;58.87
68450;SHT30;55434;39.570;2.652;2023-02-10T10:53:53;12.91;59.66
68450;SHT30;55434;39.570;2.652;2023-02-10T10:59:15;12.67;61.40
68450;SHT30;55434;39.570;2.652;2023-02-10T11:01:43;14.15;58.20
68450;SHT30;55434;39.570;2.652;2023-02-10T11:04:18;14.53;56.35
68450;SHT30;55434;39.570;2.652;2023-02-10T11:06:51;13.55;58.58
68450;SHT30;55434;39.570;2.652;2023-02-10T11:09:28;13.64;57.46
68450;SHT30;55434;39.570;2.652;2023-02-10T11:12:01;13.95;59.29
68450;SHT30;55434;39.570;2.652;2023-02-10T11:14:28;15.55;53.94
68450;SHT30;55434;39.570;2.652;2023-02-10T11:16:58;17.15;47.28
68450;SHT30;55434;39.570;2.652;2023-02-10T11:19:33;17.63;45.39
68450;SHT30;55434;39.570;2.652;2023-02-10T11:21:59;19.41;43.28
68450;SHT30;55434;39.570;2.652;2023-02-10T11:27:03;19.17;40.50
68450;SHT30;55434;39.570;2.652;2023-02-10T11:29:40;18.65;41.70
68450;SHT30;55434;39.570;2.652;2023-02-10T11:32:29;16.57;44.75
68450;SHT30;55434;39.570;2.652;2023-02-10T11:34:57;17.43;44.15
68450;SHT30;55434;39.570;2.652;2023-02-10T11:37:28;16.65;45.66
68450;SHT30;55434;39.570;2.652;2023-02-10T11:39:55;18.48;42.57
68450;SHT30;55434;39.570;2.652;2023-02-10T11:42:31;19.55;39.87
68450;SHT30;55434;39.570;2.652;2023-02-10T11:45:01;18.69;40.63
68450;SHT30;55434;39.570;2.652;2023-02-10T11:47:29;17.51;42.61
68450;SHT30;55434;39.570;2.652;2023-02-10T11:49:55;16.18;45.61
68450;SHT30;55434;39.570;2.652;2023-02-10T11:52:23;15.83;48.80
68450;SHT30;55434;39.570;2.652;2023-02-10T11:54:51;14.48;52.63
68450;SHT30;55434;39.570;2.652;2023-02-10T11:57:37;13.86;54.59
68450;SHT30;55434;39.570;2.652;2023-02-10T12:01:36;13.15;57.26
68450;SHT30;55434;39.570;2.652;2023-02-10T12:04:06;12.94;57.94
68450;SHT30;55434;39.570;2.652;2023-02-10T12:09:59;12.86;58.70
68450;SHT30;55434;39.570;2.652;2023-02-10T12:12:40;12.90;58.78
68450;SHT30;55434;39.570;2.652;2023-02-10T12:18:18;12.38;59.93
68450;SHT30;55434;39.570;2.652;2023-02-10T12:23:39;12.50;59.84
68450;SHT30;55434;39.570;2.652;2023-02-10T12:32:34;12.52;59.37
68450;SHT30;55434;39.570;2.652;2023-02-10T12:41:34;12.53;58.02
68450;SHT30;55434;39.570;2.652;2023-02-10T12:47:07;12.46;58.34
68450;SHT30;55434;39.570;2.652;2023-02-10T12:49:55;12.67;57.80
68450;SHT30;55434;39.570;2.652;2023-02-10T12:52:33;12.77;57.65
68450;SHT30;55434;39.570;2.652;2023-02-10T12:55:26;12.75;57.44
68450;SHT30;55434;39.570;2.652;2023-02-10T12:58:08;12.72;57.20
68450;SHT30;55434;39.570;2.652;2023-02-10T13:00:39;12.70;57.24
68450;SHT30;55434;39.570;2.652;2023-02-10T13:03:15;12.96;56.84
68450;SHT30;55434;39.570;2.652;2023-02-10T13:05:47;13.58;55.71
68450;SHT30;55434;39.570;2.652;2023-02-10T13:08:19;14.36;54.26
68450;SHT30;55434;39.570;2.652;2023-02-10T13:10:52;14.83;51.67
68450;SHT30;55434;39.570;2.652;2023-02-10T13:13:26;15.67;50.05
68450;SHT30;55434;39.570;2.652;2023-02-10T13:16:08;14.91;51.08
68450;SHT30;55434;39.570;2.652;2023-02-10T13:18:42;15.18;50.47
68450;SHT30;55434;39.570;2.652;2023-02-10T13:21:24;14.16;53.03
68450;SHT30;55434;39.570;2.652;2023-02-10T13:24:08;13.98;54.55
68450;SHT30;55434;39.570;2.652;2023-02-10T13:35:27;12.75;57.48
68450;SHT30;55434;39.570;2.652;2023-02-10T13:37:58;12.72;57.90
68450;SHT30;55434;39.570;2.652;2023-02-10T13:40:28;12.77;57.80
68450;SHT30;55434;39.570;2.652;2023-02-10T13:43:00;12.67;58.31
68450;SHT30;55434;39.570;2.652;2023-02-10T13:45:28;12.63;58.97
68450;SHT30;55434;39.570;2.652;2023-02-10T13:50:54;12.56;60.06
68450;SHT30;55434;39.570;2.652;2023-02-10T13:53:43;12.32;58.99
68450;SHT30;55434;39.570;2.652;2023-02-10T13:56:24;12.28;58.73
68450;SHT30;55434;39.570;2.652;2023-02-10T13:58:57;12.52;59.37
68450;SHT30;55434;39.570;2.652;2023-02-10T14:01:41;12.33;58.04
68450;SHT30;55434;39.570;2.652;2023-02-10T14:06:44;12.25;57.37
68450;SHT30;55434;39.570;2.652;2023-02-10T14:11:55;12.30;58.19
68450;SHT30;55434;39.570;2.652;2023-02-10T14:14:31;12.29;58.54
68450;SHT30;55434;39.570;2.652;2023-02-10T14:17:04;12.26;58.36
68450;SHT30;55434;39.570;2.652;2023-02-10T14:19:33;12.15;57.68
68450;SHT30;55434;39.570;2.652;2023-02-10T14:22:00;12.29;58.61
68450;SHT30;55434;39.570;2.652;2023-02-10T14:24:28;12.38;58.48
68450;SHT30;55434;39.570;2.652;2023-02-10T14:27:02;12.39;58.74
68450;SHT30;55434;39.570;2.652;2023-02-10T14:29:29;12.35;58.63
68450;SHT30;55434;39.570;2.652;2023-02-10T14:31:57;12.38;58.31
68450;SHT30;55434;39.570;2.652;2023-02-10T14:39:26;12.62;58.31
68450;SHT30;55434;39.570;2.652;2023-02-10T14:41:54;12.59;56.54
68450;SHT30;55434;39.570;2.652;2023-02-10T14:44:49;12.53;55.88
68450;SHT30;55434;39.570;2.652;2023-02-10T14:47:21;12.43;55.58
68450;SHT30;55434;39.570;2.652;2023-02-10T14:49:54;12.43;55.68
68450;SHT30;55434;39.570;2.652;2023-02-10T14:52:27;12.43;55.30
68450;SHT30;55434;39.570;2.652;2023-02-10T14:54:53;12.55;55.36
68450;SHT30;55434;39.570;2.652;2023-02-10T14:57:20;12.63;55.45
68450;SHT30;55434;39.570;2.652;2023-02-10T14:59:59;12.69;54.84
68450;SHT30;55434;39.570;2.652;2023-02-10T15:02:27;12.57;54.75
68450;SHT30;55434;39.570;2.652;2023-02-10T15:04:57;12.66;54.19
68450;SHT30;55434;39.570;2.652;2023-02-10T15:07:36;12.63;54.22
68450;SHT30;55434;39.570;2.652;2023-02-10T15:10:33;12.64;53.79
68450;SHT30;55434;39.570;2.652;2023-02-10T15:13:00;12.70;54.90
68450;SHT30;55434;39.570;2.652;2023-02-10T15:15:29;12.67;53.95
68450;SHT30;55434;39.570;2.652;2023-02-10T15:18:04;12.79;53.99
68450;SHT30;55434;39.570;2.652;2023-02-10T15:20:34;12.81;53.31
68450;SHT30;55434;39.570;2.652;2023-02-10T15:25:30;12.94;53.31
68450;SHT30;55434;39.570;2.652;2023-02-10T15:28:25;12.91;52.25
68450;SHT30;55434;39.570;2.652;2023-02-10T15:33:36;12.90;51.76
68450;SHT30;55434;39.570;2.652;2023-02-10T15:38:27;13.06;53.06
68450;SHT30;55434;39.570;2.652;2023-02-10T15:40:55;13.06;51.92
68450;SHT30;55434;39.570;2.652;2023-02-10T15:43:28;13.11;52.21
68450;SHT30;55434;39.570;2.652;2023-02-10T15:46:16;13.23;53.85
68450;SHT30;55434;39.570;2.652;2023-02-10T15:48:42;13.27;52.33
68450;SHT30;55434;39.570;2.652;2023-02-10T15:51:25;13.21;52.64
68450;SHT30;55434;39.570;2.652;2023-02-10T15:53:53;13.15;51.96
68450;SHT30;55434;39.570;2.652;2023-02-10T15:56:24;13.25;52.80
68450;SHT30;55434;39.570;2.652;2023-02-10T15:58:50;12.91;51.43
68450;SHT30;55434;39.570;2.652;2023-02-10T16:01:16;12.99;51.87
68450;SHT30;55434;39.570;2.652;2023-02-10T16:03:42;13.07;55.10
68450;SHT30;55434;39.570;2.652;2023-02-10T16:06:15;12.93;52.57
68450;SHT30;55434;39.570;2.652;2023-02-10T16:08:42;12.79;51.67
68450;SHT30;55434;39.570;2.652;2023-02-10T16:11:10;12.73;51.97
68450;SHT30;55434;39.570;2.652;2023-02-10T16:13:36;12.86;54.01
68450;SHT30;55434;39.570;2.652;2023-02-10T16:16:02;12.69;52.37
68450;SHT30;55434;39.570;2.652;2023-02-10T16:18:28;12.84;54.08
68450;SHT30;55434;39.570;2.652;2023-02-10T16:20:55;12.81;53.56
68450;SHT30;55434;39.570;2.652;2023-02-10T16:23:21;12.86;52.21
68450;SHT30;55434;39.570;2.652;2023-02-10T16:25:47;12.84;51.59
68450;SHT30;55434;39.570;2.652;2023-02-10T16:28:15;12.91;53.98
68450;SHT30;55434;39.570;2.652;2023-02-10T16:30:41;12.81;54.48
68450;SHT30;55434;39.570;2.652;2023-02-10T16:33:07;12.72;53.35
68450;SHT30;55434;39.570;2.652;2023-02-10T16:35:33;12.60;53.19
68450;SHT30;55434;39.570;2.652;2023-02-10T16:37:59;12.64;55.01
68450;SHT30;55434;39.570;2.652;2023-02-10T16:40:28;12.67;54.78
68450;SHT30;55434;39.570;2.652;2023-02-10T16:42:54;12.56;55.15
68450;SHT30;55434;39.570;2.652;2023-02-10T16:45:22;12.50;56.26
68450;SHT30;55434;39.570;2.652;2023-02-10T16:47:48;12.45;56.17
68450;SHT30;55434;39.570;2.652;2023-02-10T16:50:23;12.43;57.38
68450;SHT30;55434;39.570;2.652;2023-02-10T16:52:49;12.32;55.94
68450;SHT30;55434;39.570;2.652;2023-02-10T16:55:15;12.15;54.98
68450;SHT30;55434;39.570;2.652;2023-02-10T16:57:43;12.17;55.47
68450;SHT30;55434;39.570;2.652;2023-02-10T17:00:10;12.15;56.88
68450;SHT30;55434;39.570;2.652;2023-02-10T17:02:36;12.11;57.13
68450;SHT30;55434;39.570;2.652;2023-02-10T17:05:02;12.14;57.15
68450;SHT30;55434;39.570;2.652;2023-02-10T17:07:27;11.88;56.71
68450;SHT30;55434;39.570;2.652;2023-02-10T17:09:53;11.79;58.07
68450;SHT30;55434;39.570;2.652;2023-02-10T17:12:18;11.70;58.93
68450;SHT30;55434;39.570;2.652;2023-02-10T17:14:44;11.60;58.83
68450;SHT30;55434;39.570;2.652;2023-02-10T17:17:10;11.56;60.41
68450;SHT30;55434;39.570;2.652;2023-02-10T17:19:36;11.41;59.33
68450;SHT30;55434;39.570;2.652;2023-02-10T17:22:02;11.36;60.11
68450;SHT30;55434;39.570;2.652;2023-02-10T17:24:27;11.27;59.87
68450;SHT30;55434;39.570;2.652;2023-02-10T17:26:53;11.17;60.01
68450;SHT30;55434;39.570;2.652;2023-02-10T17:29:19;11.09;60.60
68450;SHT30;55434;39.570;2.652;2023-02-10T17:31:47;11.02;60.53
68450;SHT30;55434;39.570;2.652;2023-02-10T17:34:13;11.00;61.09
68450;SHT30;55434;39.570;2.652;2023-02-10T17:36:40;10.92;61.15
68450;SHT30;55434;39.570;2.652;2023-02-10T17:39:05;10.96;63.42
68450;SHT30;55434;39.570;2.652;2023-02-10T17:41:50;10.93;63.57
68450;SHT30;55434;39.570;2.652;2023-02-10T17:44:17;10.86;63.29
68450;SHT30;55434;39.570;2.652;2023-02-10T17:46:43;10.78;63.15
68450;SHT30;55434;39.570;2.652;2023-02-10T17:49:13;10.69;62.24
68450;SHT30;55434;39.570;2.652;2023-02-10T17:51:38;10.68;62.51